Terminal Aerodrome Forecast
Issued by NWS Boston, MA

Home | Current Version | Previous Version | Text Only | Print | Product List | Glossary On
Versions: 1 2 3 4 5 6 7 8 9 10 11 12 13 14 15 16 17 18 19 20 21 22 23 24 25 26 27 28
000
FTUS41 KBOX 191120
TAFORH
TAF
KORH 191120Z 1912/2012 20014G22KT P6SM -SHRA OVC008
     FM191400 22015G27KT P6SM -SHRA OVC015
     FM191600 24017G35KT P6SM VCSH BKN035
     FM191800 28019G40KT P6SM SCT045
     FM200300 28012G29KT P6SM FEW250=

USA.gov is the U.S. government's official web portal to all federal, state and local government web resources and services.